Stephen R Warden — WDC6523 — position and weather

sailwx.info

Track history (hours):
 
Tides and Currents Weather Stations Pressure Air Temp Water Temp Dewpoint Dewpoint Depression Visibility Wind Speed Wind Dir Waves Ship Positions

Stephen R Warden

Owner: American Commercial Lines LLC, Jeffersonvile, IN. More information available from US FCC via Universal Licensing System and Coast Guard Vessel Documentation Center.

Last reported at 2014-Nov-26 13:28 UTC. Time now 2014-Nov-27 04:17 UTC.
Position N 29°57' W 090°01'.

Length 37 m; draft 3 m.

Type: Towing. MMSI: 367057460.

Date/timePositionNaut miles runAvg speedWind from/ knotsBaromVisibWave heightAir tempDewpointWater temp
2014-Nov-26 13:28N 29°57' W 090°01'0 0.1
2014-Nov-26 12:28N 29°57' W 090°01'0 0.0
2014-Nov-26 11:32N 29°57' W 090°01'0 0.0
2014-Nov-26 09:09N 29°57' W 090°01'0 0.1
2014-Nov-26 08:24N 29°57' W 090°01'6 1.1
2014-Nov-26 02:33N 29°55' W 090°08'5 4.6
2014-Nov-26 01:32N 29°57' W 090°03'6 5.3
2014-Nov-26 00:28N 29°55' W 089°57'41 1.0
2014-Nov-24 08:29N 30°01' W 090°44'31 2.2
2014-Nov-23 18:05N 29°55' W 090°08'5 3.2
2014-Nov-23 16:27N 29°57' W 090°03'2 2.4
2014-Nov-23 15:32N 29°57' W 090°00'1 0.8
2014-Nov-23 14:12N 29°56' W 089°59'0 0.0
2014-Nov-23 13:29N 29°56' W 089°59'0 0.0
2014-Nov-23 12:22N 29°56' W 089°60'0 0.0
2014-Nov-23 11:30N 29°56' W 089°60'0 0.0
2014-Nov-23 10:32N 29°56' W 089°60'0 0.0
2014-Nov-23 09:30N 29°56' W 089°60'0 0.0
2014-Nov-23 08:33N 29°56' W 089°59'0 0.0
2014-Nov-23 07:34N 29°56' W 089°59'0 0.0
2014-Nov-23 06:33N 29°56' W 089°59'0 0.0
2014-Nov-23 05:31N 29°56' W 089°59'0 0.0
2014-Nov-23 04:33N 29°56' W 089°59'0 0.0
2014-Nov-23 03:30N 29°56' W 089°59'0 0.0
2014-Nov-23 02:33N 29°56' W 089°59'0 0.0
2014-Nov-23 01:33N 29°56' W 089°59'0 0.1
2014-Nov-23 00:33N 29°56' W 089°59'0 0.0
2014-Nov-22 23:32N 29°56' W 089°59'1 0.7
2014-Nov-22 21:27N 29°57' W 090°01'1 0.6
2014-Nov-22 20:31N 29°57' W 090°01'6 5.1
2014-Nov-22 19:23N 29°55' W 090°07'3 0.1
2014-Nov-21 20:21N 29°57' W 090°11'0 0.0
2014-Nov-21 18:13N 29°57' W 090°11'0 0.0
2014-Nov-21 17:24N 29°57' W 090°11'0 0.0
2014-Nov-21 16:21N 29°57' W 090°11'0 0.0
2014-Nov-21 15:31N 29°57' W 090°11'0 0.0
2014-Nov-21 14:27N 29°57' W 090°11'0 0.0
2014-Nov-21 13:32N 29°57' W 090°11'0 0.0
2014-Nov-21 12:25N 29°57' W 090°11'0 0.0
2014-Nov-21 11:32N 29°57' W 090°11'0 0.0
2014-Nov-21 10:29N 29°57' W 090°11'0 0.0
2014-Nov-21 09:18N 29°57' W 090°11'0 0.0
2014-Nov-21 08:33N 29°57' W 090°11'0 0.0
2014-Nov-21 07:20N 29°57' W 090°11'0 0.0
2014-Nov-21 06:30N 29°57' W 090°11'0 0.0
2014-Nov-21 04:28N 29°57' W 090°11'0 0.0
2014-Nov-20 05:30N 29°57' W 090°11'0 0.0
2014-Nov-20 04:32N 29°57' W 090°11'0 0.0
2014-Nov-20 03:22N 29°57' W 090°11'0 0.0
2014-Nov-20 02:32N 29°57' W 090°11'0 0.0
2014-Nov-20 01:21N 29°57' W 090°11'0 0.0
2014-Nov-20 00:25N 29°57' W 090°11'0 0.0
2014-Nov-19 23:25N 29°57' W 090°11'0 0.0
2014-Nov-19 22:27N 29°57' W 090°11'0 0.0
2014-Nov-19 21:33N 29°57' W 090°11'0 0.0
2014-Nov-19 20:32N 29°57' W 090°11'0 0.0
2014-Nov-19 19:29N 29°57' W 090°11'0 0.0
2014-Nov-19 18:31N 29°57' W 090°11'0 0.0
2014-Nov-18 16:06N 29°57' W 090°11'0 0.0
2014-Nov-18 15:22N 29°57' W 090°11'0 0.0
2014-Nov-18 14:31N 29°57' W 090°11'0 0.1
2014-Nov-18 12:07N 29°57' W 090°10'  
Track history (hours):
 
Tides and Currents Weather Stations Pressure Air Temp Water Temp Dewpoint Dewpoint Depression Visibility Wind Speed Wind Dir Waves Ship Positions

Stephen R Warden

Owner: American Commercial Lines LLC, Jeffersonvile, IN. More information available from US FCC via Universal Licensing System and Coast Guard Vessel Documentation Center.

Last reported at 2014-Nov-26 13:28 UTC. Time now 2014-Nov-27 04:17 UTC.
Position N 29°57' W 090°01'.

Length 37 m; draft 3 m.

Type: Towing. MMSI: 367057460.

Date/timePositionNaut miles runAvg speedWind from/ knotsBaromVisibWave heightAir tempDewpointWater temp
2014-Nov-26 13:28N 29°57' W 090°01'0 0.1
2014-Nov-26 12:28N 29°57' W 090°01'0 0.0
2014-Nov-26 11:32N 29°57' W 090°01'0 0.0
2014-Nov-26 09:09N 29°57' W 090°01'0 0.1
2014-Nov-26 08:24N 29°57' W 090°01'6 1.1
2014-Nov-26 02:33N 29°55' W 090°08'5 4.6
2014-Nov-26 01:32N 29°57' W 090°03'6 5.3
2014-Nov-26 00:28N 29°55' W 089°57'41 1.0
2014-Nov-24 08:29N 30°01' W 090°44'31 2.2
2014-Nov-23 18:05N 29°55' W 090°08'5 3.2
2014-Nov-23 16:27N 29°57' W 090°03'2 2.4
2014-Nov-23 15:32N 29°57' W 090°00'1 0.8
2014-Nov-23 14:12N 29°56' W 089°59'0 0.0
2014-Nov-23 13:29N 29°56' W 089°59'0 0.0
2014-Nov-23 12:22N 29°56' W 089°60'0 0.0
2014-Nov-23 11:30N 29°56' W 089°60'0 0.0
2014-Nov-23 10:32N 29°56' W 089°60'0 0.0
2014-Nov-23 09:30N 29°56' W 089°60'0 0.0
2014-Nov-23 08:33N 29°56' W 089°59'0 0.0
2014-Nov-23 07:34N 29°56' W 089°59'0 0.0
2014-Nov-23 06:33N 29°56' W 089°59'0 0.0
2014-Nov-23 05:31N 29°56' W 089°59'0 0.0
2014-Nov-23 04:33N 29°56' W 089°59'0 0.0
2014-Nov-23 03:30N 29°56' W 089°59'0 0.0
2014-Nov-23 02:33N 29°56' W 089°59'0 0.0
2014-Nov-23 01:33N 29°56' W 089°59'0 0.1
2014-Nov-23 00:33N 29°56' W 089°59'0 0.0
2014-Nov-22 23:32N 29°56' W 089°59'1 0.7
2014-Nov-22 21:27N 29°57' W 090°01'1 0.6
2014-Nov-22 20:31N 29°57' W 090°01'6 5.1
2014-Nov-22 19:23N 29°55' W 090°07'3 0.1
2014-Nov-21 20:21N 29°57' W 090°11'0 0.0
2014-Nov-21 18:13N 29°57' W 090°11'0 0.0
2014-Nov-21 17:24N 29°57' W 090°11'0 0.0
2014-Nov-21 16:21N 29°57' W 090°11'0 0.0
2014-Nov-21 15:31N 29°57' W 090°11'0 0.0
2014-Nov-21 14:27N 29°57' W 090°11'0 0.0
2014-Nov-21 13:32N 29°57' W 090°11'0 0.0
2014-Nov-21 12:25N 29°57' W 090°11'0 0.0
2014-Nov-21 11:32N 29°57' W 090°11'0 0.0
2014-Nov-21 10:29N 29°57' W 090°11'0 0.0
2014-Nov-21 09:18N 29°57' W 090°11'0 0.0
2014-Nov-21 08:33N 29°57' W 090°11'0 0.0
2014-Nov-21 07:20N 29°57' W 090°11'0 0.0
2014-Nov-21 06:30N 29°57' W 090°11'0 0.0
2014-Nov-21 04:28N 29°57' W 090°11'0 0.0
2014-Nov-20 05:30N 29°57' W 090°11'0 0.0
2014-Nov-20 04:32N 29°57' W 090°11'0 0.0
2014-Nov-20 03:22N 29°57' W 090°11'0 0.0
2014-Nov-20 02:32N 29°57' W 090°11'0 0.0
2014-Nov-20 01:21N 29°57' W 090°11'0 0.0
2014-Nov-20 00:25N 29°57' W 090°11'0 0.0
2014-Nov-19 23:25N 29°57' W 090°11'0 0.0
2014-Nov-19 22:27N 29°57' W 090°11'0 0.0
2014-Nov-19 21:33N 29°57' W 090°11'0 0.0
2014-Nov-19 20:32N 29°57' W 090°11'0 0.0
2014-Nov-19 19:29N 29°57' W 090°11'0 0.0
2014-Nov-19 18:31N 29°57' W 090°11'0 0.0
2014-Nov-18 16:06N 29°57' W 090°11'0 0.0
2014-Nov-18 15:22N 29°57' W 090°11'0 0.0
2014-Nov-18 14:31N 29°57' W 090°11'0 0.1
2014-Nov-18 12:07N 29°57' W 090°10'  

Dump ship's entire track history